الصفحة الرئيسية
METAR-TAF:

METAR-TAF

مطار :

RAAF Base Amberley

Ipswich, أستراليا

دائرة عرض: 27-38-26S, خط طول: 152-42-43E, ارتفاع: 28 متر

مراقبة الطقس الحالي

تاريخ ووقت الإصدار 13 دقيقة قبل الساعة 15:00UTC
ريح 4 عقدة من الشمال الغربي
درجة الحرارة 11°درجة مئوية
الرطوبة 76%
ضغط 1014 hPa
الرؤية 10 كم أو أكثر

METAR: YAMB 111500Z AUTO 31004KT 9999 // NCD 11/07 Q1014

زمن: 01:13 (15:13 UTC)

توقعات

تاريخ ووقت الإصدار 4ساعات و 26 دقيقة قبل الساعة 10:47UTC
التوقعات صالحة من11 الساعة 12 UTC إلى 12 الساعة 12 UTC
ريح 6 عقدة من الغرب/الجنوب الغربي
الرؤية 10 كم أو أكثر
الغيوم لا تقل 1500 م ولا وجود لمزنة ركامية السحاب الأسود
من 12 الساعة 0400 UTC
ريح 10 عقدة من الشرق/الشمال الشرقي
الرؤية 10 كم أو أكثر
الغيوم لا تقل 1500 م ولا وجود لمزنة ركامية السحاب الأسود

TAF: YAMB 111047Z 1112/1212 25006KT CAVOK FM120400 07010KT CAVOK

أرصاد الطقس والتوقعات من أكثر من 4000 مطار (تقارير الطقس للمطار METAR والتنبؤ بالطقس بالمطارTAF).

المحطات المتاحة هي النقط الصفراء والحمراء على الخريطة.

حرك المؤشر فوق النقطة لمعرفة اسم المحطة.

ثم انقر لمعرفة أرصاد وتوقعات الطقس.

لتغيير الخارطة: اضغط على الأزرار الخضراء مع رمز الصليب الأسود للتكبير. على الزر الأخضر مع شرطة للتصغير، أو على الأسهم الخضراء للخرائط المجاورة.


METAR-TAF: